createdAt,value
2019-04-22T00:02:26.483Z,2.67
2019-04-22T00:05:10.922Z,2.50
2019-04-22T00:07:56.825Z,2.60
2019-04-22T00:10:30.941Z,3.07
2019-04-22T00:15:20.233Z,2.57
2019-04-22T00:20:30.625Z,2.80
2019-04-22T00:23:00.110Z,2.97
2019-04-22T00:25:34.705Z,2.60
2019-04-22T00:28:08.520Z,2.73
2019-04-22T00:30:33.919Z,2.57
2019-04-22T00:33:26.463Z,2.67
2019-04-22T00:36:02.856Z,3.00
2019-04-22T00:38:42.168Z,2.57
2019-04-22T00:41:05.880Z,2.83
2019-04-22T00:43:42.179Z,3.00
2019-04-22T00:46:04.002Z,2.60
2019-04-22T00:49:30.271Z,2.90
2019-04-22T00:53:41.713Z,2.90
2019-04-22T01:01:19.138Z,2.80
2019-04-22T01:06:23.131Z,2.60
2019-04-22T01:11:30.032Z,2.97
2019-04-22T01:13:52.125Z,2.83
2019-04-22T01:16:22.971Z,3.20
2019-04-22T01:18:56.803Z,4.73
2019-04-22T01:21:36.593Z,5.27
2019-04-22T01:23:59.777Z,4.60
2019-04-22T01:26:24.292Z,3.83
2019-04-22T01:28:59.836Z,4.23
2019-04-22T01:31:20.308Z,3.70
2019-04-22T01:34:00.998Z,3.40
2019-04-22T01:36:35.224Z,4.00
2019-04-22T01:39:09.182Z,3.73
2019-04-22T01:44:27.633Z,3.90
2019-04-22T01:46:51.657Z,5.10
2019-04-22T01:49:25.580Z,3.97
2019-04-22T01:52:02.924Z,3.83
2019-04-22T01:54:31.024Z,3.47
2019-04-22T01:56:53.887Z,3.70
2019-04-22T01:59:20.089Z,3.63
2019-04-22T02:01:57.456Z,3.50
2019-04-22T02:04:35.413Z,3.50
2019-04-22T02:07:01.825Z,3.07
2019-04-22T02:09:41.251Z,3.00
2019-04-22T02:12:05.921Z,3.27
2019-04-22T02:14:39.558Z,3.40
2019-04-22T02:17:10.848Z,3.13
2019-04-22T02:19:37.291Z,3.10
2019-04-22T02:22:07.339Z,2.87
2019-04-22T02:27:23.984Z,2.70
2019-04-22T02:32:37.061Z,2.80
2019-04-22T02:35:01.507Z,2.60
2019-04-22T02:37:21.021Z,2.90
2019-04-22T02:39:57.614Z,2.67
2019-04-22T02:42:18.850Z,3.00
2019-04-22T02:47:36.230Z,2.67
2019-04-22T02:50:03.527Z,2.50
2019-04-22T02:52:31.008Z,2.90
2019-04-22T02:55:03.339Z,3.07
2019-04-22T02:57:35.309Z,2.73
2019-04-22T03:00:07.446Z,2.60
2019-04-22T03:02:45.983Z,2.93
2019-04-22T03:07:38.102Z,2.70
2019-04-22T03:10:09.635Z,2.53
2019-04-22T03:12:33.185Z,2.50
2019-04-22T03:15:07.357Z,2.70
2019-04-22T03:20:08.600Z,2.77
2019-04-22T03:23:07.583Z,2.40
2019-04-22T03:27:38.816Z,2.73
2019-04-22T03:40:30.747Z,2.90
2019-04-22T03:47:57.603Z,3.50
2019-04-22T03:50:25.806Z,3.17
2019-04-22T03:53:05.742Z,3.30
2019-04-22T03:57:57.031Z,3.10
2019-04-22T04:00:45.886Z,3.40
2019-04-22T04:05:47.894Z,2.93
2019-04-22T04:13:08.304Z,3.07
2019-04-22T04:15:53.575Z,2.80
2019-04-22T04:18:15.755Z,3.33
2019-04-22T04:20:56.233Z,3.13
2019-04-22T04:25:46.672Z,2.87
2019-04-22T04:28:43.844Z,3.07
2019-04-22T04:30:46.306Z,3.50
2019-04-22T04:33:24.942Z,3.27
2019-04-22T04:35:58.701Z,3.60
2019-04-22T04:38:21.185Z,3.80
2019-04-22T04:43:25.176Z,3.60
2019-04-22T04:46:09.935Z,3.20
2019-04-22T04:48:32.324Z,3.40
2019-04-22T04:53:31.950Z,3.53
2019-04-22T04:56:02.487Z,3.10
2019-04-22T05:01:24.731Z,3.43
2019-04-22T05:03:49.326Z,3.83
2019-04-22T05:11:16.178Z,3.63
2019-04-22T05:13:49.280Z,3.27
2019-04-22T05:16:25.085Z,3.03
2019-04-22T05:18:44.652Z,3.80
2019-04-22T05:21:13.662Z,3.30
2019-04-22T05:23:43.839Z,3.17
2019-04-22T05:26:26.071Z,3.50
2019-04-22T05:28:42.255Z,3.63
2019-04-22T05:31:16.093Z,3.47
2019-04-22T05:33:47.739Z,3.43
2019-04-22T05:36:26.460Z,3.67
2019-04-22T05:41:16.298Z,3.83
2019-04-22T05:43:50.215Z,4.80
2019-04-22T05:46:24.496Z,3.80
2019-04-22T05:48:55.383Z,3.90
2019-04-22T05:51:25.624Z,3.57
2019-04-22T05:53:59.538Z,3.47
2019-04-22T05:56:34.734Z,3.93
2019-04-22T05:59:02.449Z,3.47
2019-04-22T06:01:38.935Z,3.40
2019-04-22T06:09:05.263Z,3.70
2019-04-22T06:11:33.867Z,3.20
2019-04-22T06:14:12.045Z,3.63
2019-04-22T06:16:45.758Z,3.70
2019-04-22T06:22:06.847Z,3.00
2019-04-22T06:24:24.681Z,3.20
2019-04-22T06:29:19.418Z,3.40
2019-04-22T06:37:01.869Z,3.03
2019-04-22T06:39:32.890Z,2.87
2019-04-22T06:42:00.550Z,3.07
2019-04-22T06:44:29.585Z,2.73
2019-04-22T06:46:56.334Z,2.83
2019-04-22T06:49:35.839Z,3.10
2019-04-22T06:52:08.043Z,2.33
2019-04-22T06:54:34.275Z,3.23
2019-04-22T06:57:08.745Z,3.10
2019-04-22T06:59:39.419Z,3.30
2019-04-22T07:02:12.923Z,3.00
2019-04-22T07:04:42.989Z,2.80
2019-04-22T07:07:12.692Z,2.90
2019-04-22T07:12:20.722Z,3.27
2019-04-22T07:14:42.054Z,2.80
2019-04-22T07:17:15.413Z,3.10
2019-04-22T07:19:42.249Z,3.37
2019-04-22T07:27:25.778Z,3.50
2019-04-22T07:29:55.867Z,3.10
2019-04-22T07:32:39.271Z,3.03
2019-04-22T07:34:52.186Z,3.30
2019-04-22T07:37:31.688Z,3.10
2019-04-22T07:39:56.839Z,3.00
2019-04-22T07:42:32.903Z,2.70
2019-04-22T07:45:08.596Z,3.23
2019-04-22T07:50:05.169Z,3.20
2019-04-22T07:52:52.230Z,2.87
2019-04-22T07:55:24.279Z,3.30
2019-04-22T07:57:36.874Z,2.83
2019-04-22T08:02:44.078Z,3.60
2019-04-22T08:05:14.921Z,3.10
2019-04-22T08:08:10.969Z,3.00
2019-04-22T08:10:23.853Z,2.90
2019-04-22T08:13:05.734Z,2.87
2019-04-22T08:15:21.360Z,2.83
2019-04-22T08:20:23.282Z,3.40
2019-04-22T08:23:02.800Z,3.07
2019-04-22T08:25:26.823Z,2.80
2019-04-22T08:27:57.160Z,3.00
2019-04-22T08:33:04.087Z,2.73
2019-04-22T08:35:41.930Z,2.47
2019-04-22T08:38:02.556Z,2.50
2019-04-22T08:40:45.562Z,2.23
2019-04-22T08:43:18.059Z,2.10
2019-04-22T08:45:44.429Z,1.87
2019-04-22T08:48:07.559Z,2.03
2019-04-22T08:50:48.827Z,2.03
2019-04-22T08:53:19.675Z,2.30
2019-04-22T09:01:01.083Z,2.43
2019-04-22T09:03:16.317Z,1.97
2019-04-22T09:06:13.959Z,2.03
2019-04-22T09:08:26.770Z,2.10
2019-04-22T09:10:57.303Z,2.10
2019-04-22T09:13:30.196Z,2.47
2019-04-22T09:15:59.026Z,1.93
2019-04-22T09:18:28.712Z,2.00
2019-04-22T09:21:07.048Z,1.80
2019-04-22T09:23:38.765Z,2.00
2019-04-22T09:26:05.092Z,2.10
2019-04-22T09:28:42.384Z,2.00
2019-04-22T09:31:06.081Z,2.60
2019-04-22T09:33:37.117Z,2.03
2019-04-22T09:36:16.199Z,2.13
2019-04-22T09:41:16.132Z,2.03
2019-04-22T09:43:48.786Z,2.07
2019-04-22T09:46:19.862Z,2.13
2019-04-22T09:51:15.029Z,2.30
2019-04-22T09:54:05.937Z,2.03
2019-04-22T09:56:37.489Z,2.20
2019-04-22T09:59:02.617Z,2.40
2019-04-22T10:01:38.457Z,2.03
2019-04-22T10:04:07.018Z,2.07
2019-04-22T10:06:39.525Z,2.20
2019-04-22T10:14:14.147Z,2.20
2019-04-22T10:16:50.688Z,1.90
2019-04-22T10:19:16.864Z,1.87
2019-04-22T10:24:19.112Z,1.80
2019-04-22T10:26:55.357Z,1.90
2019-04-22T10:29:41.590Z,1.93
2019-04-22T10:34:13.182Z,2.10
2019-04-22T10:36:31.060Z,2.00
2019-04-22T10:39:02.177Z,2.20
2019-04-22T10:41:32.489Z,2.10
2019-04-22T10:44:03.327Z,1.90
2019-04-22T10:46:34.001Z,2.10
2019-04-22T10:49:04.231Z,2.67
2019-04-22T10:51:34.823Z,2.10
2019-04-22T10:54:05.291Z,1.80
2019-04-22T10:56:34.914Z,2.37
2019-04-22T10:59:04.829Z,2.13
2019-04-22T11:01:37.160Z,2.70
2019-04-22T11:04:06.969Z,2.43
2019-04-22T11:06:42.281Z,2.20
2019-04-22T11:09:10.226Z,3.53
2019-04-22T11:11:48.863Z,2.30
2019-04-22T11:14:12.677Z,2.80
2019-04-22T11:16:43.597Z,2.40
2019-04-22T11:19:13.959Z,2.90
2019-04-22T11:21:56.124Z,2.73
2019-04-22T11:24:15.043Z,3.07
2019-04-22T11:26:45.179Z,2.73
2019-04-22T11:29:14.945Z,2.80
2019-04-22T11:31:44.589Z,3.20
2019-04-22T11:34:15.333Z,3.00
2019-04-22T11:36:45.101Z,2.80
2019-04-22T11:39:16.864Z,3.03
2019-04-22T11:41:46.444Z,2.80
2019-04-22T11:44:17.192Z,2.83
2019-04-22T11:46:47.465Z,3.17
2019-04-22T11:49:18.203Z,2.73
2019-04-22T11:51:47.927Z,2.30
2019-04-22T11:54:18.784Z,2.60
2019-04-22T11:56:49.513Z,2.47
2019-04-22T11:59:20.404Z,2.30
2019-04-22T12:01:51.006Z,2.30
2019-04-22T12:04:22.009Z,2.20
2019-04-22T12:06:51.795Z,2.60
2019-04-22T12:09:21.610Z,2.50
2019-04-22T12:11:51.708Z,2.80
2019-04-22T12:14:22.229Z,2.90
2019-04-22T12:16:53.096Z,2.20
2019-04-22T12:19:23.187Z,2.90
2019-04-22T12:21:53.246Z,2.70
2019-04-22T12:24:23.526Z,2.70
2019-04-22T12:26:55.935Z,3.40
2019-04-22T12:29:26.836Z,3.47
2019-04-22T12:31:57.748Z,2.53
2019-04-22T12:34:27.390Z,2.43
2019-04-22T12:36:58.406Z,2.33
2019-04-22T12:39:29.471Z,2.23
2019-04-22T12:42:00.364Z,2.50
2019-04-22T12:44:32.612Z,2.50
2019-04-22T12:47:04.345Z,2.07
2019-04-22T12:49:36.706Z,2.20
2019-04-22T12:52:07.186Z,2.50
2019-04-22T12:54:37.337Z,2.53
2019-04-22T12:57:06.968Z,2.47
2019-04-22T12:59:37.388Z,2.30
2019-04-22T13:02:07.290Z,2.33
2019-04-22T13:04:40.443Z,2.40
2019-04-22T13:07:11.380Z,2.20
2019-04-22T13:09:41.318Z,1.97
2019-04-22T13:12:11.101Z,2.40
2019-04-22T13:14:41.040Z,3.00
2019-04-22T13:17:12.205Z,2.37
2019-04-22T13:19:42.468Z,2.37
2019-04-22T13:22:12.570Z,2.83
2019-04-22T13:24:43.764Z,2.53
2019-04-22T13:27:14.932Z,2.63
2019-04-22T13:29:46.612Z,2.60
2019-04-22T13:32:16.552Z,2.67
2019-04-22T13:34:50.330Z,2.50
2019-04-22T13:37:19.037Z,2.67
2019-04-22T13:39:49.244Z,2.30
2019-04-22T13:42:21.731Z,2.43
2019-04-22T13:44:51.701Z,2.13
2019-04-22T13:47:34.959Z,2.40
2019-04-22T13:52:58.574Z,2.37
2019-04-22T13:55:25.771Z,2.30
2019-04-22T13:57:41.384Z,2.93
2019-04-22T14:00:00.133Z,2.40
2019-04-22T14:02:48.570Z,2.20
2019-04-22T14:05:19.202Z,2.90
2019-04-22T14:07:51.677Z,2.03
2019-04-22T14:10:20.677Z,2.10
2019-04-22T14:12:50.942Z,2.30
2019-04-22T14:15:22.313Z,2.20
2019-04-22T14:17:52.770Z,2.47
2019-04-22T14:20:25.840Z,2.10
2019-04-22T14:22:54.794Z,2.30
2019-04-22T14:25:24.847Z,2.80
2019-04-22T14:28:01.708Z,2.53
2019-04-22T14:30:28.461Z,2.27
2019-04-22T14:32:58.180Z,2.50
2019-04-22T14:35:29.069Z,3.03
2019-04-22T14:38:01.294Z,2.43
2019-04-22T14:40:30.391Z,2.53
2019-04-22T14:43:30.861Z,2.17
2019-04-22T14:46:09.950Z,2.20
2019-04-22T14:48:26.644Z,2.50
2019-04-22T14:50:56.059Z,2.10
2019-04-22T14:53:25.879Z,2.30
2019-04-22T14:55:38.432Z,2.30
2019-04-22T14:58:09.047Z,2.17
2019-04-22T15:00:40.038Z,2.10
2019-04-22T15:03:10.028Z,2.67
2019-04-22T15:05:40.117Z,2.43
2019-04-22T15:08:10.967Z,2.20
2019-04-22T15:10:42.272Z,2.40
2019-04-22T15:13:13.339Z,2.07
2019-04-22T15:15:59.520Z,2.23
2019-04-22T15:18:38.108Z,2.37
2019-04-22T15:21:11.001Z,2.20
2019-04-22T15:23:42.440Z,2.17
2019-04-22T15:26:14.736Z,2.17
2019-04-22T15:28:45.194Z,2.20
2019-04-22T15:31:15.296Z,2.13
2019-04-22T15:33:48.236Z,2.40
2019-04-22T15:36:16.010Z,2.30
2019-04-22T15:38:47.084Z,2.43
2019-04-22T15:41:16.919Z,2.50
2019-04-22T15:43:47.762Z,2.60
2019-04-22T15:46:17.996Z,2.60
2019-04-22T15:48:48.484Z,2.80
2019-04-22T15:51:20.950Z,2.80
2019-04-22T15:53:51.813Z,3.27
2019-04-22T15:56:22.636Z,2.70
2019-04-22T15:58:53.513Z,2.50
2019-04-22T16:01:29.807Z,2.53
2019-04-22T16:03:54.813Z,2.63
2019-04-22T16:06:26.048Z,2.80
2019-04-22T16:08:56.064Z,2.93
2019-04-22T16:11:25.740Z,2.83
2019-04-22T16:13:56.626Z,3.00
2019-04-22T16:16:26.412Z,2.63
2019-04-22T16:18:56.223Z,3.40
2019-04-22T16:21:32.773Z,2.87
2019-04-22T16:24:02.787Z,3.20
2019-04-22T16:27:00.590Z,4.27
2019-04-22T16:29:31.446Z,3.63
2019-04-22T16:32:01.449Z,3.80
2019-04-22T16:34:31.355Z,3.90
2019-04-22T16:37:01.015Z,3.27
2019-04-22T16:39:31.082Z,3.93
2019-04-22T16:42:00.798Z,3.53
2019-04-22T16:44:30.485Z,3.77
2019-04-22T16:47:01.465Z,3.80
2019-04-22T16:49:32.091Z,3.60
2019-04-22T16:52:01.681Z,3.93
2019-04-22T16:54:31.155Z,4.10
2019-04-22T16:57:01.917Z,4.87
2019-04-22T16:59:32.724Z,4.50
2019-04-22T17:02:22.361Z,4.83
2019-04-22T17:05:05.217Z,4.57
2019-04-22T17:07:36.122Z,4.90
2019-04-22T17:10:08.241Z,4.50
2019-04-22T17:12:48.107Z,5.27
2019-04-22T17:15:14.209Z,5.03
2019-04-22T17:17:43.208Z,4.67
2019-04-22T17:20:13.364Z,5.60
2019-04-22T17:22:43.767Z,5.10
2019-04-22T17:25:14.376Z,5.03
2019-04-22T17:27:45.497Z,5.43
2019-04-22T17:30:16.724Z,5.50
2019-04-22T17:32:48.220Z,4.80
2019-04-22T17:35:17.929Z,5.40
2019-04-22T17:37:51.871Z,5.23
2019-04-22T17:40:39.190Z,5.23
2019-04-22T17:43:27.973Z,5.20
2019-04-22T17:46:00.130Z,5.30
2019-04-22T17:48:50.631Z,5.00
2019-04-22T17:53:55.978Z,5.30
2019-04-22T17:56:27.538Z,5.57
2019-04-22T17:58:57.291Z,5.50
2019-04-22T18:01:25.477Z,4.97
2019-04-22T18:03:42.371Z,5.13
2019-04-22T18:06:25.978Z,5.40
2019-04-22T18:08:55.163Z,4.90
2019-04-22T18:11:34.064Z,5.07
2019-04-22T18:14:24.266Z,5.10
2019-04-22T18:16:40.397Z,5.13
2019-04-22T18:19:07.510Z,4.83
2019-04-22T18:21:31.976Z,5.13
2019-04-22T18:23:55.470Z,5.33
2019-04-22T18:26:38.843Z,4.97
2019-04-22T18:29:07.399Z,5.27
2019-04-22T18:31:32.667Z,5.13
2019-04-22T18:34:08.316Z,5.23
2019-04-22T18:36:37.278Z,5.10
2019-04-22T18:39:21.174Z,5.40
2019-04-22T18:41:47.201Z,4.93
2019-04-22T18:44:20.312Z,4.40
2019-04-22T18:46:47.767Z,5.30
2019-04-22T18:49:15.268Z,5.20
2019-04-22T18:52:18.068Z,4.90
2019-04-22T18:55:04.144Z,4.67
2019-04-22T18:57:44.059Z,4.93
2019-04-22T19:00:05.153Z,5.00
2019-04-22T19:02:37.613Z,5.07
2019-04-22T19:05:19.977Z,4.30
2019-04-22T19:08:09.990Z,4.80
2019-04-22T19:10:43.112Z,4.90
2019-04-22T19:13:31.348Z,4.37
2019-04-22T19:15:36.358Z,4.47
2019-04-22T19:18:10.530Z,4.30
2019-04-22T19:20:44.299Z,4.50
2019-04-22T19:23:13.433Z,4.40
2019-04-22T19:25:36.951Z,4.20
2019-04-22T19:28:22.772Z,4.20
2019-04-22T19:30:50.668Z,4.23
2019-04-22T19:33:19.195Z,4.50
2019-04-22T19:35:40.199Z,4.43
2019-04-22T19:38:12.252Z,4.20
2019-04-22T19:41:00.929Z,4.03
2019-04-22T19:43:25.769Z,4.13
2019-04-22T19:45:55.340Z,4.63
2019-04-22T19:48:33.401Z,4.00
2019-04-22T19:51:04.292Z,4.07
2019-04-22T19:53:30.772Z,4.20
2019-04-22T19:55:55.601Z,4.83
2019-04-22T19:58:27.725Z,5.30
2019-04-22T20:01:15.102Z,4.30
2019-04-22T20:04:06.348Z,4.47
2019-04-22T20:06:33.570Z,4.07
2019-04-22T20:09:05.711Z,3.93
2019-04-22T20:11:38.594Z,4.67
2019-04-22T20:14:12.851Z,4.07
2019-04-22T20:16:32.575Z,3.87
2019-04-22T20:19:19.162Z,4.33
2019-04-22T20:21:44.558Z,4.63
2019-04-22T20:24:03.506Z,4.43
2019-04-22T20:26:49.916Z,4.53
2019-04-22T20:29:24.294Z,4.30
2019-04-22T20:31:51.279Z,4.30
2019-04-22T20:34:21.947Z,4.23
2019-04-22T20:39:20.394Z,4.43
2019-04-22T20:41:54.206Z,4.23
2019-04-22T20:44:32.280Z,4.57
2019-04-22T20:46:57.383Z,4.70
2019-04-22T20:49:33.101Z,4.70
2019-04-22T20:52:06.277Z,4.47
2019-04-22T20:54:32.578Z,4.47
2019-04-22T20:56:57.724Z,4.30
2019-04-22T20:59:28.934Z,4.73
2019-04-22T21:01:57.943Z,4.47
2019-04-22T21:04:24.828Z,4.47
2019-04-22T21:07:03.710Z,5.00
2019-04-22T21:09:35.544Z,4.93
2019-04-22T21:12:02.201Z,4.73
2019-04-22T21:14:32.474Z,4.87
2019-04-22T21:17:08.083Z,4.90
2019-04-22T21:19:47.989Z,5.20
2019-04-22T21:22:18.084Z,4.90
2019-04-22T21:24:41.421Z,4.87
2019-04-22T21:27:20.730Z,5.00
2019-04-22T21:29:39.948Z,4.93
2019-04-22T21:32:21.714Z,5.53
2019-04-22T21:34:55.483Z,5.00
2019-04-22T21:37:38.067Z,4.97
2019-04-22T21:39:44.845Z,5.13
2019-04-22T21:42:18.566Z,4.83
2019-04-22T21:44:49.978Z,4.90
2019-04-22T21:47:28.704Z,5.13
2019-04-22T21:50:05.982Z,5.27
2019-04-22T21:52:28.017Z,5.40
2019-04-22T21:55:06.912Z,5.20
2019-04-22T21:58:05.063Z,4.63
2019-04-22T22:00:41.132Z,4.77
2019-04-22T22:03:10.411Z,4.80
2019-04-22T22:05:28.693Z,5.00
2019-04-22T22:07:52.121Z,5.07
2019-04-22T22:10:36.449Z,5.17
2019-04-22T22:13:06.307Z,4.77
2019-04-22T22:15:36.892Z,5.30
2019-04-22T22:18:02.069Z,5.40
2019-04-22T22:20:44.980Z,4.97
2019-04-22T22:23:22.226Z,5.33
2019-04-22T22:25:40.058Z,5.17
2019-04-22T22:28:29.897Z,4.93
2019-04-22T22:33:17.539Z,5.27
2019-04-22T22:35:47.114Z,5.37
2019-04-22T22:38:21.102Z,4.73
2019-04-22T22:40:34.054Z,5.70
2019-04-22T22:43:15.942Z,5.13
2019-04-22T22:45:39.666Z,5.10
2019-04-22T22:48:28.516Z,5.30
2019-04-22T22:50:50.885Z,5.33
2019-04-22T22:53:36.959Z,5.40
2019-04-22T22:55:58.047Z,6.17
2019-04-22T22:58:27.448Z,5.40
2019-04-22T23:00:56.054Z,5.83
2019-04-22T23:03:45.905Z,5.17
2019-04-22T23:06:07.306Z,5.90
2019-04-22T23:08:49.204Z,5.63
2019-04-22T23:11:05.648Z,5.40
2019-04-22T23:13:38.669Z,5.77
2019-04-22T23:16:01.006Z,5.67
2019-04-22T23:18:19.753Z,5.60
2019-04-22T23:20:51.780Z,5.83
2019-04-22T23:23:38.207Z,5.83
2019-04-22T23:26:29.933Z,5.53
2019-04-22T23:29:03.433Z,5.93
2019-04-22T23:31:37.653Z,5.73
2019-04-22T23:34:15.764Z,5.70
2019-04-22T23:36:57.532Z,6.10
2019-04-22T23:39:41.615Z,6.17
2019-04-22T23:42:13.380Z,6.23
2019-04-22T23:44:40.169Z,6.33
2019-04-22T23:47:07.262Z,5.53
2019-04-22T23:49:35.160Z,5.80
2019-04-22T23:52:16.317Z,6.07
2019-04-22T23:54:53.793Z,6.30
2019-04-22T23:57:26.317Z,6.00
2019-04-22T23:59:56.650Z,6.80
